createdAt,value
2017-12-12T00:00:47.152Z,2.99
2017-12-12T00:01:47.138Z,2.83
2017-12-12T00:02:47.136Z,2.53
2017-12-12T00:03:47.129Z,2.70
2017-12-12T00:04:47.138Z,2.81
2017-12-12T00:05:47.106Z,2.87
2017-12-12T00:06:47.103Z,2.65
2017-12-12T00:07:47.078Z,2.90
2017-12-12T00:08:47.069Z,2.68
2017-12-12T00:09:47.057Z,2.85
2017-12-12T00:10:47.058Z,3.25
2017-12-12T00:11:47.043Z,3.23
2017-12-12T00:12:47.036Z,3.04
2017-12-12T00:13:47.553Z,3.25
2017-12-12T00:14:47.024Z,3.53
2017-12-12T00:15:47.544Z,3.40
2017-12-12T00:16:46.986Z,3.32
2017-12-12T00:17:46.979Z,3.49
2017-12-12T00:18:46.968Z,3.48
2017-12-12T00:19:46.960Z,3.72
2017-12-12T00:20:46.958Z,3.52
2017-12-12T00:21:46.941Z,3.65
2017-12-12T00:22:46.934Z,3.54
2017-12-12T00:23:46.915Z,3.26
2017-12-12T00:24:46.914Z,3.80
2017-12-12T00:25:47.566Z,3.93
2017-12-12T00:26:46.910Z,4.00
2017-12-12T00:27:46.877Z,3.88
2017-12-12T00:28:46.863Z,3.81
2017-12-12T00:29:46.863Z,4.16
2017-12-12T00:30:46.867Z,4.30
2017-12-12T00:31:46.831Z,4.49
2017-12-12T00:32:46.830Z,4.33
2017-12-12T00:33:46.808Z,4.75
2017-12-12T00:34:46.802Z,4.23
2017-12-12T00:35:46.796Z,4.34
2017-12-12T00:36:46.800Z,4.75
2017-12-12T00:37:46.783Z,5.12
2017-12-12T00:38:46.772Z,4.85
2017-12-12T00:39:46.757Z,4.67
2017-12-12T00:40:46.745Z,5.15
2017-12-12T00:41:46.723Z,5.53
2017-12-12T00:42:46.715Z,5.48
2017-12-12T00:43:46.716Z,5.73
2017-12-12T00:44:46.705Z,5.50
2017-12-12T00:45:46.689Z,5.82
2017-12-12T00:46:46.691Z,5.56
2017-12-12T00:47:46.665Z,5.80
2017-12-12T00:48:46.671Z,5.72
2017-12-12T00:49:46.670Z,5.63
2017-12-12T00:50:46.639Z,5.88
2017-12-12T00:51:46.626Z,6.70
2017-12-12T00:52:46.614Z,6.51
2017-12-12T00:53:46.609Z,6.60
2017-12-12T00:54:46.593Z,6.50
2017-12-12T00:55:46.588Z,6.69
2017-12-12T00:56:46.572Z,6.70
2017-12-12T00:57:46.562Z,6.48
2017-12-12T00:58:46.568Z,6.68
2017-12-12T00:59:46.546Z,6.58
2017-12-12T01:00:46.526Z,6.77
2017-12-12T01:01:46.515Z,6.79
2017-12-12T01:02:46.510Z,7.32
2017-12-12T01:03:46.505Z,7.41
2017-12-12T01:04:46.493Z,7.91
2017-12-12T01:05:46.488Z,7.96
2017-12-12T01:06:47.076Z,8.18
2017-12-12T01:07:46.460Z,8.30
2017-12-12T01:08:46.445Z,9.10
2017-12-12T01:09:46.430Z,9.06
2017-12-12T01:10:47.084Z,8.96
2017-12-12T01:11:46.418Z,9.11
2017-12-12T01:12:46.402Z,9.92
2017-12-12T01:13:46.387Z,10.34
2017-12-12T01:14:46.374Z,9.81
2017-12-12T01:15:46.359Z,10.06
2017-12-12T01:16:46.354Z,10.95
2017-12-12T01:17:46.347Z,10.53
2017-12-12T01:18:46.339Z,11.23
2017-12-12T01:19:46.322Z,9.99
2017-12-12T01:20:46.308Z,10.12
2017-12-12T01:21:46.305Z,10.90
2017-12-12T01:22:47.069Z,10.26
2017-12-12T01:23:46.271Z,11.08
2017-12-12T01:24:46.263Z,10.29
2017-12-12T01:25:46.250Z,11.01
2017-12-12T01:26:46.263Z,11.24
2017-12-12T01:27:46.231Z,10.98
2017-12-12T01:28:46.243Z,10.98
2017-12-12T01:29:47.070Z,10.75
2017-12-12T01:30:46.217Z,10.59
2017-12-12T01:31:46.187Z,11.21
2017-12-12T01:32:46.172Z,11.62
2017-12-12T01:33:46.180Z,11.43
2017-12-12T01:34:46.153Z,11.12
2017-12-12T01:35:46.141Z,10.83
2017-12-12T01:36:46.128Z,11.05
2017-12-12T01:37:46.120Z,10.18
2017-12-12T01:38:46.109Z,11.24
2017-12-12T01:39:46.100Z,10.16
2017-12-12T01:40:46.085Z,10.16
2017-12-12T01:41:46.082Z,10.58
2017-12-12T01:42:46.068Z,10.83
2017-12-12T01:43:46.044Z,10.37
2017-12-12T01:44:46.039Z,10.86
2017-12-12T01:45:46.043Z,10.77
2017-12-12T01:46:46.034Z,10.40
2017-12-12T01:47:46.011Z,10.46
2017-12-12T01:48:45.999Z,10.50
2017-12-12T01:49:45.988Z,10.68
2017-12-12T01:50:45.976Z,10.76
2017-12-12T01:51:45.971Z,10.43
2017-12-12T01:52:45.955Z,10.77
2017-12-12T01:53:48.576Z,11.58
2017-12-12T01:54:45.931Z,10.66
2017-12-12T01:55:45.969Z,11.02
2017-12-12T01:56:45.974Z,10.93
2017-12-12T01:57:45.896Z,10.65
2017-12-12T01:58:45.892Z,10.63
2017-12-12T01:59:45.880Z,10.86
2017-12-12T02:00:46.583Z,11.06
2017-12-12T02:01:45.863Z,11.39
2017-12-12T02:02:45.848Z,12.53
2017-12-12T02:03:45.836Z,11.76
2017-12-12T02:04:45.820Z,11.37
2017-12-12T02:05:45.808Z,11.30
2017-12-12T02:06:45.790Z,11.15
2017-12-12T02:07:45.786Z,10.95
2017-12-12T02:08:45.775Z,11.16
2017-12-12T02:09:45.765Z,10.97
2017-12-12T02:10:45.754Z,11.80
2017-12-12T02:11:45.742Z,12.22
2017-12-12T02:12:45.733Z,11.61
2017-12-12T02:13:45.729Z,10.79
2017-12-12T02:14:45.704Z,10.48
2017-12-12T02:15:45.702Z,10.00
2017-12-12T02:16:45.689Z,10.66
2017-12-12T02:17:46.596Z,10.79
2017-12-12T02:18:45.666Z,10.80
2017-12-12T02:19:45.654Z,10.86
2017-12-12T02:20:45.641Z,11.02
2017-12-12T02:21:45.621Z,10.77
2017-12-12T02:22:45.618Z,10.95
2017-12-12T02:23:46.588Z,10.11
2017-12-12T02:24:45.592Z,10.67
2017-12-12T02:25:45.583Z,10.66
2017-12-12T02:26:45.575Z,10.84
2017-12-12T02:27:45.559Z,10.80
2017-12-12T02:28:45.563Z,10.55
2017-12-12T02:29:45.544Z,9.40
2017-12-12T02:30:45.528Z,10.63
2017-12-12T02:31:45.522Z,11.54
2017-12-12T02:32:45.511Z,11.24
2017-12-12T02:33:45.506Z,11.40
2017-12-12T02:34:45.486Z,11.68
2017-12-12T02:35:45.470Z,11.60
2017-12-12T02:36:45.463Z,11.68
2017-12-12T02:37:45.454Z,11.78
2017-12-12T02:38:45.436Z,11.13
2017-12-12T02:39:45.429Z,11.52
2017-12-12T02:40:45.414Z,11.00
2017-12-12T02:41:45.405Z,11.46
2017-12-12T02:42:45.394Z,11.13
2017-12-12T02:43:45.379Z,11.13
2017-12-12T02:44:45.372Z,10.70
2017-12-12T02:45:45.362Z,11.27
2017-12-12T02:46:45.349Z,11.48
2017-12-12T02:47:45.358Z,10.90
2017-12-12T02:48:45.320Z,11.05
2017-12-12T02:49:45.305Z,11.01
2017-12-12T02:50:45.294Z,11.52
2017-12-12T02:51:45.283Z,11.72
2017-12-12T02:52:45.282Z,11.10
2017-12-12T02:53:45.264Z,10.87
2017-12-12T02:54:45.262Z,10.36
2017-12-12T02:55:45.237Z,10.82
2017-12-12T02:56:45.236Z,10.63
2017-12-12T02:57:45.223Z,10.79
2017-12-12T02:58:45.212Z,10.92
2017-12-12T02:59:45.196Z,10.89
2017-12-12T03:00:45.188Z,11.03
2017-12-12T03:01:45.169Z,10.73
2017-12-12T03:02:45.153Z,9.95
2017-12-12T03:03:45.155Z,10.28
2017-12-12T03:04:45.134Z,10.15
2017-12-12T03:05:45.127Z,9.99
2017-12-12T03:06:45.111Z,10.25
2017-12-12T03:07:45.106Z,10.06
2017-12-12T03:08:45.612Z,9.58
2017-12-12T03:09:45.079Z,9.59
2017-12-12T03:10:45.083Z,9.48
2017-12-12T03:11:45.079Z,10.03
2017-12-12T03:12:45.061Z,9.57
2017-12-12T03:13:45.599Z,9.91
2017-12-12T03:14:45.040Z,9.76
2017-12-12T03:15:45.013Z,9.57
2017-12-12T03:16:44.999Z,9.42
2017-12-12T03:17:45.000Z,10.24
2017-12-12T03:18:44.975Z,10.18
2017-12-12T03:19:44.969Z,9.54
2017-12-12T03:20:44.954Z,10.07
2017-12-12T03:21:44.946Z,9.89
2017-12-12T03:22:44.932Z,9.61
2017-12-12T03:23:44.924Z,9.15
2017-12-12T03:24:44.915Z,9.79
2017-12-12T03:25:44.903Z,9.40
2017-12-12T03:26:44.888Z,9.80
2017-12-12T03:27:44.885Z,9.29
2017-12-12T03:28:44.868Z,9.29
2017-12-12T03:29:44.858Z,9.13
2017-12-12T03:30:44.844Z,9.14
2017-12-12T03:31:44.837Z,9.67
2017-12-12T03:32:44.822Z,9.62
2017-12-12T03:33:44.806Z,8.98
2017-12-12T03:34:44.794Z,9.68
2017-12-12T03:35:44.785Z,9.40
2017-12-12T03:36:44.776Z,9.28
2017-12-12T03:37:44.764Z,9.64
2017-12-12T03:38:44.751Z,9.66
2017-12-12T03:39:44.729Z,8.88
2017-12-12T03:40:44.728Z,10.15
2017-12-12T03:41:44.720Z,9.77
2017-12-12T03:42:44.710Z,9.06
2017-12-12T03:43:44.696Z,9.49
2017-12-12T03:44:44.685Z,9.82
2017-12-12T03:45:44.675Z,10.00
2017-12-12T03:46:44.652Z,9.42
2017-12-12T03:47:44.656Z,9.43
2017-12-12T03:48:44.636Z,9.76
2017-12-12T03:49:44.618Z,9.07
2017-12-12T03:50:44.626Z,9.87
2017-12-12T03:51:44.604Z,9.99
2017-12-12T03:52:44.594Z,9.70
2017-12-12T03:53:44.583Z,9.78
2017-12-12T03:54:44.575Z,10.14
2017-12-12T03:55:44.563Z,10.41
2017-12-12T03:56:44.545Z,10.45
2017-12-12T03:57:44.525Z,10.66
2017-12-12T03:58:44.521Z,10.90
2017-12-12T03:59:44.517Z,10.41
2017-12-12T04:00:44.509Z,10.80
2017-12-12T04:01:44.490Z,11.05
2017-12-12T04:02:44.468Z,10.94
2017-12-12T04:03:44.463Z,10.92
2017-12-12T04:04:45.125Z,11.07
2017-12-12T04:05:44.465Z,11.45
2017-12-12T04:06:44.442Z,11.47
2017-12-12T04:07:44.428Z,11.09
2017-12-12T04:08:44.407Z,11.05
2017-12-12T04:09:45.122Z,11.31
2017-12-12T04:10:44.390Z,10.72
2017-12-12T04:11:44.379Z,10.72
2017-12-12T04:12:44.369Z,10.89
2017-12-12T04:13:44.360Z,10.24
2017-12-12T04:14:44.340Z,10.90
2017-12-12T04:15:44.324Z,11.30
2017-12-12T04:16:44.331Z,11.67
2017-12-12T04:17:45.122Z,11.25
2017-12-12T04:18:44.300Z,11.07
2017-12-12T04:19:44.279Z,11.14
2017-12-12T04:20:44.277Z,10.23
2017-12-12T04:21:44.271Z,11.24
2017-12-12T04:22:44.259Z,11.14
2017-12-12T04:23:44.238Z,10.72
2017-12-12T04:24:44.243Z,10.62
2017-12-12T04:25:44.222Z,10.86
2017-12-12T04:26:44.209Z,10.63
2017-12-12T04:27:44.204Z,10.62
2017-12-12T04:28:44.187Z,10.92
2017-12-12T04:29:45.121Z,10.37
2017-12-12T04:30:44.162Z,10.78
2017-12-12T04:31:44.161Z,11.46
2017-12-12T04:32:44.139Z,10.54
2017-12-12T04:33:44.131Z,11.00
2017-12-12T04:34:44.119Z,11.20
2017-12-12T04:35:44.110Z,11.14
2017-12-12T04:36:44.109Z,10.87
2017-12-12T04:37:44.093Z,11.29
2017-12-12T04:38:44.075Z,11.57
2017-12-12T04:39:44.076Z,11.46
2017-12-12T04:40:44.057Z,11.46
2017-12-12T04:41:44.640Z,11.36
2017-12-12T04:42:44.027Z,11.01
2017-12-12T04:43:44.022Z,10.43
2017-12-12T04:44:44.012Z,11.24
2017-12-12T04:45:44.628Z,10.06
2017-12-12T04:46:43.986Z,10.14
2017-12-12T04:47:44.620Z,10.52
2017-12-12T04:48:43.965Z,10.75
2017-12-12T04:49:43.958Z,9.82
2017-12-12T04:50:43.937Z,11.04
2017-12-12T04:51:43.938Z,11.13
2017-12-12T04:52:46.634Z,10.31
2017-12-12T04:53:43.909Z,10.00
2017-12-12T04:54:43.899Z,9.58
2017-12-12T04:55:43.889Z,9.91
2017-12-12T04:56:43.874Z,10.57
2017-12-12T04:57:43.861Z,10.24
2017-12-12T04:58:44.634Z,9.59
2017-12-12T04:59:44.630Z,10.04
2017-12-12T05:00:43.843Z,9.48
2017-12-12T05:01:44.629Z,9.30
2017-12-12T05:02:43.816Z,9.59
2017-12-12T05:03:44.636Z,9.74
2017-12-12T05:04:43.790Z,9.13
2017-12-12T05:05:43.778Z,9.03
2017-12-12T05:06:43.766Z,9.61
2017-12-12T05:07:43.755Z,9.21
2017-12-12T05:08:43.742Z,9.42
2017-12-12T05:09:43.727Z,9.24
2017-12-12T05:10:43.720Z,8.99
2017-12-12T05:11:43.699Z,9.49
2017-12-12T05:12:43.701Z,8.96
2017-12-12T05:13:43.694Z,9.21
2017-12-12T05:14:43.665Z,8.61
2017-12-12T05:15:43.667Z,8.54
2017-12-12T05:16:43.651Z,8.96
2017-12-12T05:17:43.970Z,8.58
2017-12-12T05:18:43.638Z,8.50
2017-12-12T05:19:43.623Z,8.25
2017-12-12T05:20:43.619Z,8.41
2017-12-12T05:21:44.149Z,8.08
2017-12-12T05:22:43.587Z,8.67
2017-12-12T05:23:43.577Z,8.23
2017-12-12T05:24:43.557Z,8.16
2017-12-12T05:25:43.564Z,8.37
2017-12-12T05:26:43.541Z,8.08
2017-12-12T05:27:43.531Z,8.00
2017-12-12T05:28:43.519Z,8.52
2017-12-12T05:29:43.512Z,9.02
2017-12-12T05:30:43.487Z,8.71
2017-12-12T05:31:43.492Z,8.69
2017-12-12T05:32:43.486Z,8.65
2017-12-12T05:33:43.458Z,8.54
2017-12-12T05:34:43.456Z,8.33
2017-12-12T05:35:43.447Z,8.72
2017-12-12T05:36:43.455Z,8.31
2017-12-12T05:37:43.420Z,8.39
2017-12-12T05:38:43.417Z,8.23
2017-12-12T05:39:43.399Z,7.75
2017-12-12T05:40:43.384Z,7.93
2017-12-12T05:41:43.382Z,8.14
2017-12-12T05:42:43.360Z,8.26
2017-12-12T05:43:43.358Z,7.93
2017-12-12T05:44:43.343Z,8.18
2017-12-12T05:45:43.324Z,8.65
2017-12-12T05:46:43.318Z,8.98
2017-12-12T05:47:44.557Z,8.35
2017-12-12T05:48:43.296Z,8.72
2017-12-12T05:49:43.276Z,8.34
2017-12-12T05:50:43.274Z,12.71
2017-12-12T05:51:43.258Z,10.24
2017-12-12T05:52:43.248Z,7.95
2017-12-12T05:53:43.230Z,8.31
2017-12-12T05:54:43.227Z,8.34
2017-12-12T05:55:43.216Z,8.26
2017-12-12T05:56:44.149Z,9.50
2017-12-12T05:57:43.190Z,9.48
2017-12-12T05:58:43.165Z,9.09
2017-12-12T05:59:43.159Z,8.99
2017-12-12T06:00:43.155Z,8.32
2017-12-12T06:01:43.148Z,8.69
2017-12-12T06:02:43.129Z,7.73
2017-12-12T06:03:43.116Z,8.51
2017-12-12T06:04:43.108Z,9.08
2017-12-12T06:05:43.090Z,8.37
2017-12-12T06:06:47.596Z,8.77
2017-12-12T06:07:45.876Z,8.26
2017-12-12T06:08:43.063Z,7.89
2017-12-12T06:09:43.047Z,8.25
2017-12-12T06:10:43.034Z,9.28
2017-12-12T06:11:43.032Z,7.84
2017-12-12T06:12:43.023Z,7.87
2017-12-12T06:13:43.654Z,7.73
2017-12-12T06:14:43.001Z,8.74
2017-12-12T06:15:42.990Z,8.08
2017-12-12T06:16:42.975Z,7.51
2017-12-12T06:17:45.663Z,7.84
2017-12-12T06:18:42.984Z,7.35
2017-12-12T06:19:42.941Z,7.98
2017-12-12T06:20:42.925Z,8.00
2017-12-12T06:21:42.918Z,7.90
2017-12-12T06:22:42.918Z,7.76
2017-12-12T06:23:42.908Z,7.93
2017-12-12T06:24:43.651Z,7.03
2017-12-12T06:25:42.905Z,7.36
2017-12-12T06:26:42.865Z,7.06
2017-12-12T06:27:42.850Z,7.68
2017-12-12T06:28:42.856Z,7.74
2017-12-12T06:29:42.873Z,6.92
2017-12-12T06:30:42.811Z,7.33
2017-12-12T06:31:42.805Z,7.11
2017-12-12T06:32:45.648Z,7.02
2017-12-12T06:33:42.796Z,7.31
2017-12-12T06:34:42.776Z,7.11
2017-12-12T06:35:42.768Z,7.11
2017-12-12T06:36:42.755Z,7.16
2017-12-12T06:37:42.747Z,7.19
2017-12-12T06:38:42.732Z,6.68
2017-12-12T06:39:42.724Z,7.11
2017-12-12T06:40:42.706Z,6.34
2017-12-12T06:41:42.727Z,6.56
2017-12-12T06:42:42.694Z,6.89
2017-12-12T06:43:42.674Z,6.66
2017-12-12T06:44:43.667Z,7.06
2017-12-12T06:45:43.309Z,7.24
2017-12-12T06:46:43.318Z,6.77
2017-12-12T06:47:42.630Z,6.91
2017-12-12T06:48:42.620Z,6.60
2017-12-12T06:49:42.612Z,6.49
2017-12-12T06:50:42.601Z,6.50
2017-12-12T06:51:42.594Z,6.98
2017-12-12T06:52:42.590Z,7.00
2017-12-12T06:53:43.161Z,7.68
2017-12-12T06:54:42.556Z,7.60
2017-12-12T06:55:42.578Z,7.53
2017-12-12T06:56:43.166Z,7.60
2017-12-12T06:57:42.532Z,7.40
2017-12-12T06:58:43.316Z,7.68
2017-12-12T06:59:42.509Z,7.72
2017-12-12T07:00:42.496Z,7.82
2017-12-12T07:01:42.478Z,7.92
2017-12-12T07:02:42.466Z,7.90
2017-12-12T07:03:42.454Z,7.89
2017-12-12T07:04:43.172Z,7.66
2017-12-12T07:05:43.180Z,7.48
2017-12-12T07:06:43.185Z,7.76
2017-12-12T07:07:42.421Z,7.52
2017-12-12T07:08:42.409Z,7.02
2017-12-12T07:09:42.399Z,6.90
2017-12-12T07:10:42.391Z,6.81
2017-12-12T07:11:42.379Z,7.48
2017-12-12T07:12:42.388Z,7.26
2017-12-12T07:13:42.357Z,7.09
2017-12-12T07:14:42.362Z,6.99
2017-12-12T07:15:42.334Z,6.82
2017-12-12T07:16:42.327Z,6.99
2017-12-12T07:17:42.306Z,7.01
2017-12-12T07:18:42.301Z,7.64
2017-12-12T07:19:42.292Z,7.16
2017-12-12T07:20:42.284Z,7.22
2017-12-12T07:21:42.286Z,7.26
2017-12-12T07:22:42.266Z,7.23
2017-12-12T07:23:42.253Z,7.33
2017-12-12T07:24:42.240Z,7.37
2017-12-12T07:25:42.225Z,7.13
2017-12-12T07:26:42.216Z,7.63
2017-12-12T07:27:42.205Z,7.34
2017-12-12T07:28:42.202Z,7.71
2017-12-12T07:29:43.170Z,7.22
2017-12-12T07:30:42.178Z,7.79
2017-12-12T07:31:42.161Z,7.70
2017-12-12T07:32:42.158Z,7.50
2017-12-12T07:33:42.147Z,7.78
2017-12-12T07:34:42.136Z,8.08
2017-12-12T07:35:42.122Z,7.60
2017-12-12T07:36:42.112Z,7.87
2017-12-12T07:37:42.103Z,7.67
2017-12-12T07:38:42.679Z,7.30
2017-12-12T07:39:42.084Z,7.46
2017-12-12T07:40:42.070Z,7.75
2017-12-12T07:41:42.054Z,7.59
2017-12-12T07:42:42.038Z,7.48
2017-12-12T07:43:42.033Z,7.48
2017-12-12T07:44:42.026Z,7.50
2017-12-12T07:45:42.015Z,7.28
2017-12-12T07:46:42.007Z,8.02
2017-12-12T07:47:41.990Z,7.51
2017-12-12T07:48:41.987Z,7.65
2017-12-12T07:49:41.978Z,8.14
2017-12-12T07:50:41.968Z,8.48
2017-12-12T07:51:41.966Z,8.08
2017-12-12T07:52:41.943Z,8.37
2017-12-12T07:53:41.936Z,7.82
2017-12-12T07:54:41.925Z,7.68
2017-12-12T07:55:41.910Z,8.51
2017-12-12T07:56:41.899Z,8.37
2017-12-12T07:57:41.889Z,7.55
2017-12-12T07:58:41.877Z,6.94
2017-12-12T07:59:41.867Z,6.86
2017-12-12T08:00:41.859Z,6.82
2017-12-12T08:01:41.845Z,6.90
2017-12-12T08:02:41.836Z,7.11
2017-12-12T08:03:41.836Z,6.95
2017-12-12T08:04:41.815Z,7.07
2017-12-12T08:05:41.799Z,6.85
2017-12-12T08:06:41.793Z,7.07
2017-12-12T08:07:41.783Z,7.04
2017-12-12T08:08:41.771Z,7.51
2017-12-12T08:09:41.785Z,7.70
2017-12-12T08:10:41.752Z,7.20
2017-12-12T08:11:41.736Z,7.86
2017-12-12T08:11:53.741Z,0.32
2017-12-12T08:13:41.722Z,7.51
2017-12-12T08:14:41.711Z,7.65
2017-12-12T08:15:41.698Z,7.84
2017-12-12T08:16:41.689Z,8.31
2017-12-12T08:17:41.678Z,8.47
2017-12-12T08:18:41.668Z,8.03
2017-12-12T08:19:41.689Z,8.32
2017-12-12T08:20:41.641Z,8.05
2017-12-12T08:21:41.631Z,7.39
2017-12-12T08:22:41.624Z,7.35
2017-12-12T08:23:41.610Z,7.32
2017-12-12T08:24:41.591Z,7.46
2017-12-12T08:25:41.589Z,7.70
2017-12-12T08:26:41.573Z,7.95
2017-12-12T08:27:41.569Z,8.17
2017-12-12T08:28:41.566Z,8.00
2017-12-12T08:29:41.549Z,8.28
2017-12-12T08:30:41.532Z,7.83
2017-12-12T08:31:42.194Z,7.65
2017-12-12T08:32:41.518Z,7.59
2017-12-12T08:33:41.507Z,7.71
2017-12-12T08:34:41.497Z,7.68
2017-12-12T08:35:41.485Z,7.17
2017-12-12T08:36:41.470Z,7.81
2017-12-12T08:37:41.461Z,7.61
2017-12-12T08:38:41.462Z,7.58
2017-12-12T08:39:41.460Z,7.70
2017-12-12T08:40:41.427Z,7.41
2017-12-12T08:41:41.417Z,6.83
2017-12-12T08:42:41.414Z,6.98
2017-12-12T08:43:41.396Z,6.73
2017-12-12T08:44:41.393Z,6.67
2017-12-12T08:45:41.380Z,6.75
2017-12-12T08:46:41.365Z,7.41
2017-12-12T08:47:41.356Z,8.54
2017-12-12T08:48:41.348Z,7.87
2017-12-12T08:49:41.345Z,6.13
2017-12-12T08:50:41.335Z,6.15
2017-12-12T08:51:41.313Z,5.90
2017-12-12T08:52:41.299Z,6.07
2017-12-12T08:53:41.291Z,6.25
2017-12-12T08:54:41.278Z,6.12
2017-12-12T08:55:41.270Z,6.57
2017-12-12T08:56:41.252Z,7.06
2017-12-12T08:57:41.247Z,7.09
2017-12-12T08:58:44.198Z,6.60
2017-12-12T08:59:41.226Z,6.35
2017-12-12T09:00:42.199Z,6.69
2017-12-12T09:01:41.200Z,6.38
2017-12-12T09:02:41.195Z,5.74
2017-12-12T09:03:41.182Z,5.74
2017-12-12T09:04:41.170Z,5.66
2017-12-12T09:05:41.161Z,6.05
2017-12-12T09:06:41.165Z,5.90
2017-12-12T09:07:41.139Z,5.67
2017-12-12T09:08:41.126Z,5.66
2017-12-12T09:09:41.112Z,5.33
2017-12-12T09:10:41.105Z,5.29
2017-12-12T09:11:41.097Z,5.66
2017-12-12T09:12:41.080Z,5.34
2017-12-12T09:13:41.073Z,5.61
2017-12-12T09:14:41.072Z,5.51
2017-12-12T09:15:41.052Z,5.56
2017-12-12T09:16:41.039Z,5.69
2017-12-12T09:17:41.031Z,5.84
2017-12-12T09:18:41.710Z,5.79
2017-12-12T09:19:41.010Z,5.74
2017-12-12T09:20:41.000Z,5.60
2017-12-12T09:21:40.989Z,5.36
2017-12-12T09:22:40.980Z,5.70
2017-12-12T09:23:40.968Z,5.72
2017-12-12T09:24:41.710Z,5.68
2017-12-12T09:25:40.945Z,6.09
2017-12-12T09:26:40.939Z,5.82
2017-12-12T09:27:40.932Z,5.92
2017-12-12T09:28:40.922Z,5.88
2017-12-12T09:29:40.906Z,5.87
2017-12-12T09:30:41.714Z,5.93
2017-12-12T09:31:40.893Z,5.71
2017-12-12T09:32:40.879Z,5.59
2017-12-12T09:33:43.707Z,5.76
2017-12-12T09:34:40.861Z,5.48
2017-12-12T09:35:40.849Z,5.37
2017-12-12T09:36:40.838Z,5.22
2017-12-12T09:37:40.825Z,5.38
2017-12-12T09:38:41.074Z,5.55
2017-12-12T09:39:40.807Z,5.83
2017-12-12T09:40:40.796Z,5.80
2017-12-12T09:41:40.793Z,5.66
2017-12-12T09:42:40.782Z,5.52
2017-12-12T09:43:40.767Z,5.60
2017-12-12T09:44:40.753Z,5.43
2017-12-12T09:45:40.744Z,5.28
2017-12-12T09:46:40.779Z,5.50
2017-12-12T09:47:40.733Z,5.76
2017-12-12T09:48:40.721Z,5.72
2017-12-12T09:49:40.709Z,6.56
2017-12-12T09:50:40.719Z,6.42
2017-12-12T09:51:40.695Z,5.87
2017-12-12T09:52:40.680Z,6.33
2017-12-12T09:53:40.668Z,5.92
2017-12-12T09:54:40.671Z,5.70
2017-12-12T09:55:40.648Z,5.84
2017-12-12T09:56:40.647Z,6.15
2017-12-12T09:57:40.626Z,6.56
2017-12-12T09:58:40.640Z,6.44
2017-12-12T09:59:40.624Z,6.20
2017-12-12T10:00:40.604Z,6.11
2017-12-12T10:01:40.596Z,6.26
2017-12-12T10:02:40.588Z,6.55
2017-12-12T10:03:40.582Z,6.42
2017-12-12T10:04:40.562Z,6.74
2017-12-12T10:05:40.558Z,6.58
2017-12-12T10:06:40.546Z,6.40
2017-12-12T10:07:40.540Z,6.51
2017-12-12T10:08:40.528Z,6.41
2017-12-12T10:09:40.521Z,6.38
2017-12-12T10:10:40.517Z,6.57
2017-12-12T10:11:40.498Z,6.64
2017-12-12T10:12:40.507Z,6.42
2017-12-12T10:13:40.477Z,6.50
2017-12-12T10:14:40.470Z,6.61
2017-12-12T10:15:40.461Z,6.40
2017-12-12T10:16:40.450Z,6.21
2017-12-12T10:17:40.437Z,6.20
2017-12-12T10:18:40.434Z,6.34
2017-12-12T10:19:41.217Z,6.68
2017-12-12T10:20:40.422Z,6.06
2017-12-12T10:21:40.420Z,5.76
2017-12-12T10:22:40.396Z,6.45
2017-12-12T10:23:40.399Z,6.16
2017-12-12T10:24:40.383Z,5.76
2017-12-12T10:24:53.230Z,0.24
2017-12-12T10:26:40.358Z,5.72
2017-12-12T10:27:40.356Z,5.46
2017-12-12T10:28:40.348Z,5.48
2017-12-12T10:29:40.339Z,5.37
2017-12-12T10:30:40.323Z,5.44
2017-12-12T10:31:40.318Z,5.56
2017-12-12T10:32:40.315Z,5.62
2017-12-12T10:33:40.327Z,5.50
2017-12-12T10:34:40.293Z,5.26
2017-12-12T10:35:40.327Z,5.77
2017-12-12T10:36:40.269Z,5.07
2017-12-12T10:37:40.270Z,5.00
2017-12-12T10:38:40.257Z,5.26
2017-12-12T10:39:40.254Z,5.08
2017-12-12T10:40:40.242Z,5.14
2017-12-12T10:41:40.235Z,4.66
2017-12-12T10:42:40.214Z,4.63
2017-12-12T10:43:40.219Z,4.57
2017-12-12T10:44:40.200Z,5.16
2017-12-12T10:45:40.196Z,4.83
2017-12-12T10:46:40.177Z,5.14
2017-12-12T10:47:40.172Z,4.72
2017-12-12T10:48:40.164Z,4.33
2017-12-12T10:49:40.158Z,4.87
2017-12-12T10:50:40.144Z,4.76
2017-12-12T10:51:40.137Z,4.54
2017-12-12T10:52:40.129Z,4.58
2017-12-12T10:53:40.120Z,4.93
2017-12-12T10:54:40.110Z,4.49
2017-12-12T10:55:40.100Z,4.66
2017-12-12T10:56:40.096Z,4.33
2017-12-12T10:57:40.088Z,4.62
2017-12-12T10:58:40.070Z,4.54
2017-12-12T10:59:40.059Z,4.36
2017-12-12T11:00:40.046Z,4.32
2017-12-12T11:01:40.046Z,4.13
2017-12-12T11:02:40.031Z,4.28
2017-12-12T11:03:40.026Z,4.22
2017-12-12T11:04:40.009Z,3.76
2017-12-12T11:05:40.019Z,3.77
2017-12-12T11:06:39.994Z,4.35
2017-12-12T11:07:39.987Z,4.06
2017-12-12T11:08:39.978Z,3.94
2017-12-12T11:09:40.734Z,3.48
2017-12-12T11:10:39.963Z,3.83
2017-12-12T11:11:39.945Z,3.68
2017-12-12T11:12:39.953Z,3.79
2017-12-12T11:13:39.931Z,3.56
2017-12-12T11:14:39.919Z,3.73
2017-12-12T11:15:39.926Z,3.64
2017-12-12T11:16:39.905Z,3.64
2017-12-12T11:17:39.889Z,3.52
2017-12-12T11:18:39.878Z,3.37
2017-12-12T11:19:39.871Z,3.45
2017-12-12T11:20:39.869Z,3.68
2017-12-12T11:21:39.860Z,3.77
2017-12-12T11:22:39.868Z,3.79
2017-12-12T11:23:39.846Z,3.76
2017-12-12T11:24:39.829Z,3.67
2017-12-12T11:25:39.826Z,3.76
2017-12-12T11:26:39.809Z,3.77
2017-12-12T11:27:39.808Z,3.72
2017-12-12T11:28:40.750Z,3.97
2017-12-12T11:29:39.794Z,3.88
2017-12-12T11:30:39.779Z,4.08
2017-12-12T11:31:39.765Z,3.92
2017-12-12T11:32:39.764Z,3.78
2017-12-12T11:33:39.754Z,4.03
2017-12-12T11:34:39.744Z,4.06
2017-12-12T11:35:39.742Z,4.25
2017-12-12T11:36:39.738Z,4.00
2017-12-12T11:37:39.711Z,4.27
2017-12-12T11:38:39.699Z,4.10
2017-12-12T11:39:39.697Z,3.72
2017-12-12T11:40:40.250Z,4.08
2017-12-12T11:41:40.247Z,4.46
2017-12-12T11:42:39.664Z,4.30
2017-12-12T11:43:39.655Z,3.96
2017-12-12T11:44:39.644Z,4.33
2017-12-12T11:45:39.637Z,3.82
2017-12-12T11:46:39.623Z,3.73
2017-12-12T11:47:39.624Z,3.61
2017-12-12T11:48:39.616Z,3.51
2017-12-12T11:49:39.651Z,3.47
2017-12-12T11:50:39.605Z,3.40
2017-12-12T11:51:39.587Z,3.24
2017-12-12T11:52:39.574Z,3.46
2017-12-12T11:53:39.560Z,3.26
2017-12-12T11:54:39.571Z,3.36
2017-12-12T11:55:39.539Z,3.22
2017-12-12T11:56:39.535Z,3.04
2017-12-12T11:57:39.523Z,2.96
2017-12-12T11:58:39.510Z,2.89
2017-12-12T11:59:39.511Z,2.97
2017-12-12T12:00:39.516Z,3.12
2017-12-12T12:01:39.487Z,3.04
2017-12-12T12:02:39.482Z,3.17
2017-12-12T12:03:39.467Z,3.14
2017-12-12T12:04:39.464Z,2.96
2017-12-12T12:05:39.454Z,2.74
2017-12-12T12:06:39.444Z,3.14
2017-12-12T12:07:40.261Z,2.84
2017-12-12T12:08:39.424Z,2.95
2017-12-12T12:09:39.410Z,2.76
2017-12-12T12:10:39.399Z,2.65
2017-12-12T12:11:39.396Z,2.76
2017-12-12T12:12:39.391Z,3.01
2017-12-12T12:13:40.255Z,2.94
2017-12-12T12:14:39.368Z,2.90
2017-12-12T12:15:39.351Z,2.90
2017-12-12T12:16:39.337Z,3.04
2017-12-12T12:17:39.340Z,2.56
2017-12-12T12:18:39.332Z,2.77
2017-12-12T12:19:39.321Z,2.76
2017-12-12T12:20:39.301Z,3.04
2017-12-12T12:21:39.301Z,2.97
2017-12-12T12:22:39.298Z,3.16
2017-12-12T12:23:39.281Z,3.12
2017-12-12T12:24:39.274Z,3.01
2017-12-12T12:25:39.256Z,3.08
2017-12-12T12:26:39.283Z,2.98
2017-12-12T12:27:39.262Z,3.02
2017-12-12T12:28:39.230Z,2.90
2017-12-12T12:29:41.785Z,2.93
2017-12-12T12:30:39.203Z,2.86
2017-12-12T12:31:39.196Z,2.95
2017-12-12T12:32:41.770Z,3.02
2017-12-12T12:33:39.187Z,2.95
2017-12-12T12:34:39.169Z,2.90
2017-12-12T12:35:39.154Z,3.16
2017-12-12T12:36:41.763Z,2.94
2017-12-12T12:37:39.137Z,3.12
2017-12-12T12:38:39.127Z,3.40
2017-12-12T12:39:39.120Z,3.08
2017-12-12T12:40:39.112Z,3.24
2017-12-12T12:41:39.762Z,3.28
2017-12-12T12:42:39.771Z,3.67
2017-12-12T12:43:39.080Z,3.39
2017-12-12T12:44:39.776Z,3.74
2017-12-12T12:45:39.064Z,3.41
2017-12-12T12:46:39.054Z,3.27
2017-12-12T12:47:39.047Z,3.12
2017-12-12T12:48:39.774Z,3.48
2017-12-12T12:49:39.037Z,3.49
2017-12-12T12:50:39.021Z,3.50
2017-12-12T12:51:39.007Z,3.75
2017-12-12T12:52:38.997Z,3.56
2017-12-12T12:53:38.981Z,3.86
2017-12-12T12:54:39.772Z,3.72
2017-12-12T12:55:38.963Z,3.92
2017-12-12T12:56:38.955Z,3.86
2017-12-12T12:57:38.948Z,3.70
2017-12-12T12:58:38.938Z,3.83
2017-12-12T12:59:38.931Z,4.37
2017-12-12T13:00:38.926Z,3.97
2017-12-12T13:01:38.906Z,4.29
2017-12-12T13:02:38.923Z,3.80
2017-12-12T13:03:38.886Z,4.05
2017-12-12T13:04:39.789Z,4.22
2017-12-12T13:05:38.876Z,3.96
2017-12-12T13:06:38.888Z,3.77
2017-12-12T13:07:38.850Z,4.09
2017-12-12T13:08:38.855Z,4.06
2017-12-12T13:09:38.828Z,3.81
2017-12-12T13:10:39.813Z,4.14
2017-12-12T13:11:38.812Z,4.34
2017-12-12T13:12:39.781Z,4.20